createdAt,value
2019-02-09T00:01:03.791Z,1.93
2019-02-09T00:03:32.940Z,1.80
2019-02-09T00:06:01.999Z,1.97
2019-02-09T00:08:31.269Z,1.80
2019-02-09T00:11:00.335Z,2.00
2019-02-09T00:13:29.378Z,2.07
2019-02-09T00:15:58.613Z,1.73
2019-02-09T00:18:27.637Z,1.80
2019-02-09T00:20:56.764Z,1.50
2019-02-09T00:23:25.965Z,1.80
2019-02-09T00:25:55.018Z,1.83
2019-02-09T00:28:24.072Z,1.80
2019-02-09T00:30:53.284Z,1.77
2019-02-09T00:33:22.357Z,1.87
2019-02-09T00:35:51.381Z,2.20
2019-02-09T00:38:20.619Z,1.63
2019-02-09T00:40:49.654Z,1.50
2019-02-09T00:43:18.968Z,2.87
2019-02-09T00:45:48.256Z,1.80
2019-02-09T00:48:17.258Z,1.70
2019-02-09T00:50:46.310Z,2.47
2019-02-09T00:53:15.499Z,1.60
2019-02-09T00:55:44.716Z,1.57
2019-02-09T00:58:13.763Z,1.97
2019-02-09T01:00:43.023Z,2.37
2019-02-09T01:03:12.669Z,1.47
2019-02-09T01:05:43.959Z,1.73
2019-02-09T01:08:13.138Z,2.03
2019-02-09T01:10:42.761Z,2.07
2019-02-09T01:13:11.953Z,2.57
2019-02-09T01:15:41.020Z,1.90
2019-02-09T01:18:10.063Z,1.87
2019-02-09T01:20:39.261Z,1.83
2019-02-09T01:23:08.333Z,2.00
2019-02-09T01:25:37.485Z,1.93
2019-02-09T01:28:06.853Z,1.93
2019-02-09T01:30:35.995Z,1.60
2019-02-09T01:33:05.055Z,1.90
2019-02-09T01:35:34.360Z,1.90
2019-02-09T01:38:03.774Z,1.70
2019-02-09T01:40:32.831Z,1.80
2019-02-09T01:43:02.107Z,1.80
2019-02-09T01:45:31.725Z,1.33
2019-02-09T01:48:00.921Z,1.77
2019-02-09T01:50:31.391Z,1.67
2019-02-09T01:53:00.549Z,2.00
2019-02-09T01:55:29.719Z,1.70
2019-02-09T01:57:59.238Z,2.60
2019-02-09T02:00:30.923Z,1.50
2019-02-09T02:03:00.363Z,1.57
2019-02-09T02:05:29.447Z,2.27
2019-02-09T02:07:58.702Z,1.73
2019-02-09T02:10:38.815Z,2.37
2019-02-09T02:13:11.094Z,1.73
2019-02-09T02:15:40.883Z,2.00
2019-02-09T02:18:10.339Z,2.07
2019-02-09T02:20:39.703Z,2.60
2019-02-09T02:23:08.980Z,1.90
2019-02-09T02:25:38.035Z,2.23
2019-02-09T02:28:07.085Z,2.00
2019-02-09T02:30:37.355Z,2.43
2019-02-09T02:33:06.977Z,2.47
2019-02-09T02:35:36.346Z,2.50
2019-02-09T02:38:06.261Z,2.03
2019-02-09T02:40:35.373Z,3.13
2019-02-09T02:43:04.916Z,2.10
2019-02-09T02:45:34.327Z,2.23
2019-02-09T02:48:03.407Z,3.30
2019-02-09T02:50:32.534Z,2.90
2019-02-09T02:53:01.727Z,2.73
2019-02-09T02:55:30.814Z,2.83
2019-02-09T02:58:01.194Z,3.40
2019-02-09T03:00:32.242Z,3.10
2019-02-09T03:03:02.084Z,2.90
2019-02-09T03:05:31.253Z,3.40
2019-02-09T03:08:00.606Z,4.07
2019-02-09T03:10:29.946Z,2.57
2019-02-09T03:12:59.066Z,3.00
2019-02-09T03:15:29.622Z,3.27
2019-02-09T03:17:58.885Z,2.57
2019-02-09T03:20:28.080Z,3.30
2019-02-09T03:22:57.199Z,3.30
2019-02-09T03:25:30.991Z,3.30
2019-02-09T03:28:00.173Z,3.23
2019-02-09T03:30:29.454Z,2.87
2019-02-09T03:32:58.575Z,3.33
2019-02-09T03:35:27.846Z,3.10
2019-02-09T03:37:57.195Z,3.40
2019-02-09T03:40:26.976Z,3.40
2019-02-09T03:42:56.450Z,3.13
2019-02-09T03:45:29.703Z,2.83
2019-02-09T03:47:59.124Z,3.07
2019-02-09T03:50:29.860Z,3.37
2019-02-09T03:52:59.018Z,3.37
2019-02-09T03:55:28.299Z,3.10
2019-02-09T03:57:57.394Z,3.13
2019-02-09T04:00:28.563Z,3.07
2019-02-09T04:02:58.003Z,3.30
2019-02-09T04:05:27.128Z,3.63
2019-02-09T04:07:56.302Z,3.43
2019-02-09T04:10:26.181Z,3.10
2019-02-09T04:12:55.235Z,3.90
2019-02-09T04:15:25.153Z,3.03
2019-02-09T04:17:54.425Z,3.60
2019-02-09T04:20:23.901Z,2.80
2019-02-09T04:22:53.459Z,2.80
2019-02-09T04:25:23.756Z,3.40
2019-02-09T04:27:52.810Z,3.17
2019-02-09T04:30:23.967Z,3.27
2019-02-09T04:32:53.810Z,3.43
2019-02-09T04:35:22.873Z,3.70
2019-02-09T04:37:51.931Z,3.43
2019-02-09T04:40:29.747Z,4.30
2019-02-09T04:42:59.101Z,3.70
2019-02-09T04:45:28.367Z,3.80
2019-02-09T04:47:57.685Z,3.17
2019-02-09T04:50:26.840Z,3.93
2019-02-09T04:52:56.131Z,3.60
2019-02-09T04:55:26.211Z,3.27
2019-02-09T04:57:56.372Z,3.67
2019-02-09T05:00:30.812Z,3.60
2019-02-09T05:03:00.307Z,3.27
2019-02-09T05:05:29.993Z,3.30
2019-02-09T05:07:59.118Z,4.33
2019-02-09T05:10:28.150Z,3.63
2019-02-09T05:12:57.446Z,3.13
2019-02-09T05:15:26.692Z,3.00
2019-02-09T05:17:55.739Z,3.33
2019-02-09T05:20:25.548Z,3.27
2019-02-09T05:22:55.255Z,3.13
2019-02-09T05:25:24.351Z,3.50
2019-02-09T05:27:53.659Z,3.70
2019-02-09T05:30:29.380Z,3.30
2019-02-09T05:33:00.502Z,3.20
2019-02-09T05:35:29.501Z,4.17
2019-02-09T05:37:58.679Z,4.47
2019-02-09T05:40:28.031Z,4.80
2019-02-09T05:42:57.148Z,4.08
2019-02-09T05:45:27.888Z,2.83
2019-02-09T05:47:57.310Z,3.07
2019-02-09T05:50:26.494Z,3.23
2019-02-09T05:52:55.781Z,3.40
2019-02-09T05:55:25.173Z,3.10
2019-02-09T05:57:54.290Z,3.83
2019-02-09T06:00:34.602Z,4.07
2019-02-09T06:03:03.687Z,3.43
2019-02-09T06:05:32.781Z,3.33
2019-02-09T06:08:02.024Z,3.03
2019-02-09T06:10:31.150Z,3.77
2019-02-09T06:13:00.314Z,4.03
2019-02-09T06:15:29.943Z,3.67
2019-02-09T06:17:59.071Z,4.13
2019-02-09T06:20:30.023Z,2.80
2019-02-09T06:22:59.366Z,4.53
2019-02-09T06:25:28.612Z,4.33
2019-02-09T06:27:57.741Z,4.77
2019-02-09T06:30:28.692Z,3.97
2019-02-09T06:32:58.340Z,4.23
2019-02-09T06:35:27.493Z,3.97
2019-02-09T06:37:57.003Z,4.17
2019-02-09T06:40:26.550Z,4.42
2019-02-09T06:42:55.656Z,4.17
2019-02-09T06:45:27.373Z,4.27
2019-02-09T06:48:17.667Z,7.17
2019-02-09T06:50:47.050Z,5.87
2019-02-09T06:53:16.090Z,5.20
2019-02-09T06:55:45.407Z,5.43
2019-02-09T06:58:14.643Z,5.13
2019-02-09T07:00:43.666Z,5.80
2019-02-09T07:03:12.724Z,5.37
2019-02-09T07:05:42.028Z,5.67
2019-02-09T07:08:12.967Z,5.33
2019-02-09T07:10:42.122Z,5.33
2019-02-09T07:13:11.472Z,5.30
2019-02-09T07:15:40.774Z,6.63
2019-02-09T07:18:10.054Z,5.60
2019-02-09T07:20:39.207Z,5.30
2019-02-09T07:23:08.337Z,5.47
2019-02-09T07:25:37.925Z,5.03
2019-02-09T07:28:07.423Z,5.27
2019-02-09T07:30:36.528Z,4.70
2019-02-09T07:33:06.987Z,5.23
2019-02-09T07:35:36.180Z,5.10
2019-02-09T07:38:05.400Z,4.97
2019-02-09T07:40:34.596Z,6.40
2019-02-09T07:43:04.820Z,4.57
2019-02-09T07:45:34.235Z,4.53
2019-02-09T07:48:03.347Z,4.10
2019-02-09T07:50:32.621Z,3.90
2019-02-09T07:53:01.779Z,4.60
2019-02-09T07:55:31.098Z,4.07
2019-02-09T07:58:00.337Z,4.67
2019-02-09T08:00:30.057Z,4.97
2019-02-09T08:03:02.082Z,3.47
2019-02-09T08:05:31.367Z,4.50
2019-02-09T08:08:00.765Z,4.40
2019-02-09T08:10:31.663Z,5.10
2019-02-09T08:13:01.437Z,3.63
2019-02-09T08:15:31.340Z,4.10
2019-02-09T08:18:00.745Z,4.57
2019-02-09T08:20:29.946Z,4.70
2019-02-09T08:22:59.977Z,4.20
2019-02-09T08:25:31.326Z,4.57
2019-02-09T08:28:00.886Z,4.80
2019-02-09T08:30:33.057Z,4.53
2019-02-09T08:33:02.201Z,4.33
2019-02-09T08:35:31.265Z,4.43
2019-02-09T08:38:00.680Z,4.47
2019-02-09T08:40:29.730Z,5.00
2019-02-09T08:42:59.752Z,4.97
2019-02-09T08:45:29.104Z,4.10
2019-02-09T08:47:58.240Z,4.97
2019-02-09T08:50:33.126Z,4.87
2019-02-09T08:53:02.203Z,4.53
2019-02-09T08:55:31.392Z,5.40
2019-02-09T08:58:00.608Z,5.23
2019-02-09T09:00:31.430Z,6.43
2019-02-09T09:03:01.152Z,4.13
2019-02-09T09:05:30.334Z,4.10
2019-02-09T09:07:59.614Z,4.23
2019-02-09T09:10:29.150Z,4.93
2019-02-09T09:12:58.574Z,4.10
2019-02-09T09:15:30.667Z,3.77
2019-02-09T09:17:59.768Z,3.67
2019-02-09T09:20:31.430Z,3.67
2019-02-09T09:23:00.572Z,3.63
2019-02-09T09:25:29.903Z,4.80
2019-02-09T09:27:59.217Z,4.33
2019-02-09T09:30:28.783Z,4.33
2019-02-09T09:32:58.050Z,4.23
2019-02-09T09:35:27.376Z,4.00
2019-02-09T09:37:56.701Z,4.50
2019-02-09T09:40:28.576Z,4.40
2019-02-09T09:42:57.701Z,4.70
2019-02-09T09:45:29.373Z,3.57
2019-02-09T09:47:58.507Z,3.53
2019-02-09T09:50:27.875Z,4.27
2019-02-09T09:52:57.119Z,3.50
2019-02-09T09:55:26.176Z,4.33
2019-02-09T09:57:55.329Z,3.97
2019-02-09T10:00:25.460Z,3.67
2019-02-09T10:02:54.545Z,4.00
2019-02-09T10:05:23.605Z,3.33
2019-02-09T10:07:52.820Z,4.33
2019-02-09T10:10:21.910Z,3.10
2019-02-09T10:12:50.957Z,3.70
2019-02-09T10:15:21.573Z,3.90
2019-02-09T10:17:50.631Z,3.90
2019-02-09T10:20:21.185Z,4.20
2019-02-09T10:22:50.341Z,4.63
2019-02-09T10:25:26.147Z,4.10
2019-02-09T10:27:56.122Z,3.20
2019-02-09T10:30:26.866Z,4.63
2019-02-09T10:32:55.953Z,3.80
2019-02-09T10:35:25.326Z,3.80
2019-02-09T10:37:54.476Z,3.90
2019-02-09T10:40:25.564Z,4.70
2019-02-09T10:42:55.174Z,4.70
2019-02-09T10:45:26.730Z,5.47
2019-02-09T10:47:56.110Z,4.43
2019-02-09T10:50:30.644Z,4.30
2019-02-09T10:52:59.922Z,3.43
2019-02-09T10:55:28.976Z,3.50
2019-02-09T10:57:58.030Z,4.40
2019-02-09T11:00:30.312Z,3.90
2019-02-09T11:02:59.512Z,4.63
2019-02-09T11:05:28.654Z,3.80
2019-02-09T11:07:57.937Z,4.77
2019-02-09T11:10:27.059Z,3.60
2019-02-09T11:12:56.156Z,3.60
2019-02-09T11:15:25.642Z,3.00
2019-02-09T11:17:55.634Z,3.13
2019-02-09T11:20:24.690Z,4.20
2019-02-09T11:22:53.944Z,4.43
2019-02-09T11:25:23.139Z,4.17
2019-02-09T11:27:52.213Z,4.00
2019-02-09T11:30:22.515Z,4.13
2019-02-09T11:32:51.591Z,3.90
2019-02-09T11:35:21.541Z,3.97
2019-02-09T11:37:51.255Z,3.97
2019-02-09T11:40:21.027Z,4.13
2019-02-09T11:42:50.321Z,4.17
2019-02-09T11:45:24.243Z,4.50
2019-02-09T11:47:53.879Z,3.90
2019-02-09T11:50:22.945Z,4.27
2019-02-09T11:52:52.089Z,4.13
2019-02-09T11:55:21.293Z,4.47
2019-02-09T11:57:50.455Z,4.33
2019-02-09T12:00:25.836Z,4.10
2019-02-09T12:03:02.147Z,4.43
2019-02-09T12:05:26.573Z,4.40
2019-02-09T12:07:55.714Z,4.83
2019-02-09T12:10:24.943Z,3.93
2019-02-09T12:12:54.019Z,5.00
2019-02-09T12:15:28.691Z,4.13
2019-02-09T12:17:57.766Z,4.33
2019-02-09T12:20:26.828Z,5.13
2019-02-09T12:22:56.090Z,4.13
2019-02-09T12:25:27.434Z,5.03
2019-02-09T12:27:56.505Z,5.10
2019-02-09T12:30:27.128Z,5.60
2019-02-09T12:32:56.203Z,5.03
2019-02-09T12:35:25.264Z,5.07
2019-02-09T12:37:54.449Z,4.73
2019-02-09T12:40:25.752Z,5.23
2019-02-09T12:42:55.142Z,4.93
2019-02-09T12:45:24.766Z,4.90
2019-02-09T12:47:53.932Z,5.10
2019-02-09T12:50:25.270Z,4.37
2019-02-09T12:52:54.995Z,4.93
2019-02-09T12:55:24.913Z,4.90
2019-02-09T12:57:54.149Z,4.57
2019-02-09T13:00:28.794Z,4.50
2019-02-09T13:02:58.715Z,4.93
2019-02-09T13:05:27.764Z,3.63
2019-02-09T13:07:56.898Z,3.93
2019-02-09T13:10:26.196Z,3.80
2019-02-09T13:12:55.362Z,4.07
2019-02-09T13:15:26.307Z,4.13
2019-02-09T13:17:55.611Z,4.47
2019-02-09T13:20:26.072Z,3.40
2019-02-09T13:22:55.366Z,3.87
2019-02-09T13:25:24.635Z,4.60
2019-02-09T13:27:54.239Z,4.50
2019-02-09T13:30:25.863Z,4.67
2019-02-09T13:32:54.986Z,4.17
2019-02-09T13:35:24.158Z,4.80
2019-02-09T13:37:53.596Z,3.97
2019-02-09T13:40:22.814Z,4.27
2019-02-09T13:42:51.922Z,4.20
2019-02-09T13:45:28.847Z,4.53
2019-02-09T13:47:57.987Z,4.50
2019-02-09T13:50:28.079Z,4.73
2019-02-09T13:52:57.325Z,3.90
2019-02-09T13:55:26.455Z,4.00
2019-02-09T13:57:55.593Z,4.67
2019-02-09T14:00:25.656Z,4.10
2019-02-09T14:02:55.138Z,4.87
2019-02-09T14:05:24.204Z,3.63
2019-02-09T14:07:53.309Z,4.10
2019-02-09T14:10:22.495Z,4.90
2019-02-09T14:12:51.767Z,4.17
2019-02-09T14:15:22.848Z,4.77
2019-02-09T14:17:52.127Z,6.17
2019-02-09T14:20:21.657Z,4.77
2019-02-09T14:22:50.914Z,5.93
2019-02-09T14:25:20.186Z,5.73
2019-02-09T14:27:50.649Z,5.23
2019-02-09T14:30:22.351Z,4.40
2019-02-09T14:32:51.589Z,4.87
2019-02-09T14:35:20.652Z,5.00
2019-02-09T14:37:49.770Z,4.90
2019-02-09T14:40:20.962Z,4.23
2019-02-09T14:42:51.002Z,4.73
2019-02-09T14:45:22.085Z,4.43
2019-02-09T14:47:51.224Z,5.07
2019-02-09T14:50:20.603Z,5.10
2019-02-09T14:52:49.675Z,4.63
2019-02-09T14:55:21.868Z,4.70
2019-02-09T14:57:51.071Z,5.07
2019-02-09T15:00:23.419Z,4.60
2019-02-09T15:02:54.046Z,5.40
2019-02-09T15:05:23.234Z,4.97
2019-02-09T15:08:03.637Z,5.63
2019-02-09T15:10:42.180Z,5.83
2019-02-09T15:13:20.328Z,4.63
2019-02-09T15:16:19.666Z,5.33
2019-02-09T15:18:55.720Z,4.57
2019-02-09T15:21:25.026Z,4.83
2019-02-09T15:23:54.083Z,4.70
2019-02-09T15:26:23.129Z,4.77
2019-02-09T15:28:52.203Z,4.50
2019-02-09T15:31:21.252Z,4.50
2019-02-09T15:33:50.703Z,4.73
2019-02-09T15:36:19.762Z,4.27
2019-02-09T15:38:48.892Z,4.13
2019-02-09T15:41:17.961Z,4.33
2019-02-09T15:43:55.825Z,4.67
2019-02-09T15:46:34.830Z,4.83
2019-02-09T15:49:08.868Z,4.50
2019-02-09T15:51:47.117Z,4.70
2019-02-09T15:54:25.921Z,3.90
2019-02-09T15:57:05.717Z,4.07
2019-02-09T15:59:42.676Z,4.97
2019-02-09T16:02:20.213Z,5.03
2019-02-09T16:04:58.137Z,4.03
2019-02-09T16:07:33.739Z,4.63
2019-02-09T16:10:18.463Z,5.03
2019-02-09T16:12:53.375Z,4.00
2019-02-09T16:15:32.410Z,4.20
2019-02-09T16:18:12.975Z,5.00
2019-02-09T16:20:50.626Z,4.70
2019-02-09T16:23:27.849Z,4.23
2019-02-09T16:26:05.316Z,4.97
2019-02-09T16:28:41.608Z,4.93
2019-02-09T16:31:20.804Z,4.30
2019-02-09T16:33:58.186Z,4.60
2019-02-09T16:36:37.433Z,5.30
2019-02-09T16:39:17.000Z,4.50
2019-02-09T16:41:46.323Z,4.47
2019-02-09T16:44:15.382Z,5.17
2019-02-09T16:46:44.585Z,4.70
2019-02-09T16:49:13.689Z,4.67
2019-02-09T16:51:42.738Z,4.47
2019-02-09T16:54:12.021Z,5.50
2019-02-09T16:56:41.074Z,4.43
2019-02-09T16:59:10.143Z,5.27
2019-02-09T17:01:39.387Z,4.70
2019-02-09T17:04:08.558Z,5.93
2019-02-09T17:06:37.607Z,5.43
2019-02-09T17:09:09.353Z,3.77
2019-02-09T17:11:38.720Z,4.97
2019-02-09T17:14:08.916Z,3.90
2019-02-09T17:16:38.171Z,4.77
2019-02-09T17:19:07.198Z,4.27
2019-02-09T17:21:36.259Z,4.10
2019-02-09T17:24:05.911Z,4.70
2019-02-09T17:26:34.967Z,3.77
2019-02-09T17:29:04.219Z,4.07
2019-02-09T17:31:33.441Z,4.20
2019-02-09T17:34:02.484Z,4.13
2019-02-09T17:36:31.553Z,4.30
2019-02-09T17:39:00.661Z,4.23
2019-02-09T17:41:29.814Z,4.20
2019-02-09T17:43:59.129Z,4.37
2019-02-09T17:46:28.363Z,3.30
2019-02-09T17:48:57.399Z,4.07
2019-02-09T17:51:26.460Z,3.90
2019-02-09T17:53:56.788Z,4.43
2019-02-09T17:56:25.822Z,4.43
2019-02-09T17:58:54.892Z,3.90
2019-02-09T18:01:24.041Z,5.23
2019-02-09T18:03:53.122Z,4.90
2019-02-09T18:06:25.262Z,3.83
2019-02-09T18:08:54.565Z,4.50
2019-02-09T18:11:23.606Z,4.50
2019-02-09T18:13:52.670Z,5.63
2019-02-09T18:16:21.904Z,4.80
2019-02-09T18:18:50.914Z,5.20
2019-02-09T18:21:19.933Z,4.47
2019-02-09T18:23:49.872Z,4.23
2019-02-09T18:26:18.871Z,4.87
2019-02-09T18:28:47.927Z,5.40
2019-02-09T18:31:17.291Z,6.23
2019-02-09T18:33:46.351Z,4.30
2019-02-09T18:36:15.407Z,4.27
2019-02-09T18:38:44.609Z,4.17
2019-02-09T18:41:13.711Z,4.97
2019-02-09T18:43:42.769Z,4.07
2019-02-09T18:46:11.973Z,3.10
2019-02-09T18:48:41.044Z,4.50
2019-02-09T18:51:10.800Z,4.50
2019-02-09T18:53:40.037Z,3.97
2019-02-09T18:56:09.096Z,4.03
2019-02-09T18:58:38.160Z,3.77
2019-02-09T19:01:07.568Z,3.40
2019-02-09T19:03:36.640Z,3.70
2019-02-09T19:06:05.994Z,4.23
2019-02-09T19:08:35.202Z,3.47
2019-02-09T19:11:04.317Z,4.63
2019-02-09T19:13:33.396Z,3.80
2019-02-09T19:16:02.688Z,3.70
2019-02-09T19:18:38.468Z,4.00
2019-02-09T19:21:11.938Z,4.57
2019-02-09T19:23:40.988Z,4.00
2019-02-09T19:26:16.772Z,3.60
2019-02-09T19:28:45.939Z,4.07
2019-02-09T19:31:14.994Z,4.70
2019-02-09T19:33:44.354Z,3.93
2019-02-09T19:36:13.505Z,4.33
2019-02-09T19:38:42.615Z,4.03
2019-02-09T19:41:11.960Z,4.63
2019-02-09T19:43:41.098Z,3.50
2019-02-09T19:46:10.415Z,3.87
2019-02-09T19:48:39.653Z,4.17
2019-02-09T19:51:08.850Z,3.60
2019-02-09T19:53:37.915Z,4.13
2019-02-09T19:56:07.125Z,4.23
2019-02-09T19:58:36.261Z,3.67
2019-02-09T20:01:05.581Z,3.60
2019-02-09T20:03:37.087Z,3.83
2019-02-09T20:06:06.575Z,4.63
2019-02-09T20:08:54.999Z,3.37
2019-02-09T20:11:24.093Z,3.67
2019-02-09T20:13:53.193Z,3.97
2019-02-09T20:16:22.515Z,3.90
2019-02-09T20:18:51.909Z,3.20
2019-02-09T20:21:21.027Z,3.53
2019-02-09T20:23:50.330Z,3.30
2019-02-09T20:26:21.773Z,3.10
2019-02-09T20:28:51.022Z,3.50
2019-02-09T20:31:21.432Z,3.90
2019-02-09T20:33:50.571Z,4.07
2019-02-09T20:36:22.747Z,3.20
2019-02-09T20:38:51.878Z,2.70
2019-02-09T20:41:21.033Z,3.20
2019-02-09T20:43:50.327Z,3.30
2019-02-09T20:46:19.828Z,3.10
2019-02-09T20:48:48.902Z,3.10
2019-02-09T20:51:18.140Z,2.73
2019-02-09T20:53:47.205Z,3.40
2019-02-09T20:56:16.277Z,2.63
2019-02-09T20:58:45.520Z,3.10
2019-02-09T21:01:15.418Z,3.00
2019-02-09T21:03:44.476Z,3.07
2019-02-09T21:06:13.740Z,3.70
2019-02-09T21:08:42.801Z,3.30
2019-02-09T21:11:11.968Z,3.17
2019-02-09T21:13:41.320Z,2.67
2019-02-09T21:16:10.472Z,3.63
2019-02-09T21:18:39.526Z,2.73
2019-02-09T21:21:11.722Z,2.77
2019-02-09T21:23:40.794Z,2.60
2019-02-09T21:26:10.032Z,3.73
2019-02-09T21:28:39.120Z,3.47
2019-02-09T21:31:08.187Z,3.37
2019-02-09T21:33:37.264Z,2.93
2019-02-09T21:36:06.328Z,2.63
2019-02-09T21:38:35.351Z,2.67
2019-02-09T21:41:04.563Z,2.60
2019-02-09T21:43:33.682Z,2.87
2019-02-09T21:46:02.816Z,2.50
2019-02-09T21:48:32.287Z,2.60
2019-02-09T21:51:01.408Z,2.50
2019-02-09T21:53:30.491Z,4.00
2019-02-09T21:55:59.747Z,2.97
2019-02-09T21:58:28.787Z,2.60
2019-02-09T22:00:57.851Z,2.37
2019-02-09T22:03:27.223Z,2.47
2019-02-09T22:05:56.299Z,2.50
2019-02-09T22:08:25.437Z,2.50
2019-02-09T22:10:54.591Z,2.83
2019-02-09T22:13:23.648Z,2.60
2019-02-09T22:15:52.717Z,2.57
2019-02-09T22:18:22.026Z,2.30
2019-02-09T22:20:52.792Z,2.90
2019-02-09T22:23:21.906Z,2.77
2019-02-09T22:25:51.139Z,2.70
2019-02-09T22:28:20.235Z,2.37
2019-02-09T22:30:49.313Z,2.90
2019-02-09T22:33:24.667Z,3.00
2019-02-09T22:35:49.545Z,2.87
2019-02-09T22:38:18.667Z,2.30
2019-02-09T22:40:48.059Z,2.83
2019-02-09T22:43:17.146Z,2.73
2019-02-09T22:45:46.258Z,3.17
2019-02-09T22:48:15.549Z,2.60
2019-02-09T22:50:45.973Z,3.13
2019-02-09T22:53:15.061Z,3.90
2019-02-09T22:55:44.364Z,3.03
2019-02-09T22:58:13.420Z,2.77
2019-02-09T23:00:55.904Z,2.43
2019-02-09T23:03:43.806Z,2.87
2019-02-09T23:06:32.985Z,2.93
2019-02-09T23:09:02.149Z,3.00
2019-02-09T23:11:31.202Z,2.53
2019-02-09T23:14:00.520Z,2.63
2019-02-09T23:16:29.595Z,3.00
2019-02-09T23:18:59.809Z,2.20
2019-02-09T23:21:29.278Z,2.53
2019-02-09T23:23:58.278Z,2.13
2019-02-09T23:26:27.421Z,2.67
2019-02-09T23:28:56.679Z,2.90
2019-02-09T23:31:25.824Z,2.23
2019-02-09T23:33:54.799Z,2.70
2019-02-09T23:36:24.060Z,2.67
2019-02-09T23:38:54.432Z,2.43
2019-02-09T23:41:23.482Z,2.13
2019-02-09T23:43:52.679Z,2.70
2019-02-09T23:46:21.673Z,2.20
2019-02-09T23:48:50.919Z,2.20
2019-02-09T23:51:20.275Z,2.43
2019-02-09T23:53:49.339Z,2.33
2019-02-09T23:56:18.405Z,2.13
2019-02-09T23:58:47.918Z,2.03
